Montrose, AR (71658)

5:47 PM CDT on March 27, 2015 (GMT -0500)
Lake Hall Rd near Fawnwood Comm Ctr | | Change Station
CLOSE
Current Station
Personal Weather Station
Location: Lake Village, AR
Elevation: 118 ft
Nearby Weather Stations
Active Advisory: Flood Warning

Elev 118 ft 33.28 °N, 91.24 °W | Updated 23 seconds ago

Clear
Clear
55.6 °F
Feels Like 55.6 °F
N
3.0
Wind Variable Wind from NNE
Gusts 8.0 mph

Today
High -- | Low -- °F
--% Chance of Precip.
Yesterday
High -- | Low -- °F
Precip. -- in
7:00 AM 7:22 PM
First Quarter, 56% visible
Pressure 30.11 in
Visibility 10.0 miles
Clouds Few 4000 ft
Few 7500 ft
Dew Point 41 °F
Humidity 59%
Rainfall 0.00 in
Snow Depth Not available.
UV 3 out of 12
Pollen 9.80 out of 12
Air Quality Not available.
Flu Activity Not available.
METAR KLLQ 272153Z AUTO 36008KT 10SM FEW040 FEW075 13/03 A3011 RMK AO2 SLP196 T01330028

More Conditions Fewer Conditions

Pressure 30.11 in
Visibility 10.0 miles
Clouds Few 4000 ft
Few 7500 ft
Dew Point 41 °F
Humidity 59%
Rainfall 0.00 in
Snow Depth Not available.
UV 3 out of 12
Pollen 9.80 out of 12
Air Quality Not available.
Flu Activity Not available.
METAR KLLQ 272153Z AUTO 36008KT 10SM FEW040 FEW075 13/03 A3011 RMK AO2 SLP196 T01330028

More Conditions Fewer Conditions

10-Day Weather Forecast

Almanac

Astronomy

Mar. 27, 2015 Rise Set
Actual Time
Civil Twilight
Nautical Twilight
Astronomical Twilight
Moon
Length of Visible Light
Length of Day
Tomorrow will be .
, % of the Moon is Illuminated

Today's Extremes

State Highs State Lows

Community

WunderPhotos

Upload Photos

1,808,856 photos uploaded!

WunderBlogs® & News

Nearby

Air Quality

  Air Quality AQ Index Pollutant
Not available.

Snow Depth

Station Depth Elevation

Earthquake Activity

City Distance Mag. Time & Date
Minimum magnitude displayed is 2.5.

Coastal Water Temperatures

Place Temperature

Stations

Nearby Weather Stations

Station Location Temp. Windchill Dew Point Humidity Wind Precip. Elev Updated Type
                   
Flood Warning
Statement as of 10:24 AM CDT on March 27, 2015

The Flood Warning continues for
the Ouachita River at Felsenthal, Arkansas.
* Until further notice... or until the warning is cancelled.
* At 900 am Friday the pool stage was 78.7 feet.
* Minor flooding is occurring and minor flooding is forecast.
* Flood pool stage is 70.0 feet.
* Forecast... the river will continue rising to near 78.9 feet by
Saturday morning.
* Impact... at 80.0 feet... flooding of low lying areas in the
Felsenthal wildlife Refuge will continue for at least another three
weeks.


Lat... Lon 3300 9210 3311 9217 3318 9212 3307 9211 3300 9205